sensor_id;sensor_type;location;lat;lon;timestamp;temperature;humidity
41344;DHT22;27089;50.022;7.604;2022-07-21T00:01:28;20.10;99.90
41344;DHT22;27089;50.022;7.604;2022-07-21T00:03:55;20.10;99.90
41344;DHT22;27089;50.022;7.604;2022-07-21T00:06:22;20.10;99.90
41344;DHT22;27089;50.022;7.604;2022-07-21T00:08:49;20.20;99.90
41344;DHT22;27089;50.022;7.604;2022-07-21T00:11:16;20.10;99.90
41344;DHT22;27089;50.022;7.604;2022-07-21T00:13:43;20.10;99.90
41344;DHT22;27089;50.022;7.604;2022-07-21T00:16:11;20.10;99.90
41344;DHT22;27089;50.022;7.604;2022-07-21T00:18:38;20.10;99.90
41344;DHT22;27089;50.022;7.604;2022-07-21T00:21:05;20.00;99.90
41344;DHT22;27089;50.022;7.604;2022-07-21T00:23:32;19.90;99.90
41344;DHT22;27089;50.022;7.604;2022-07-21T00:26:00;19.90;99.90
41344;DHT22;27089;50.022;7.604;2022-07-21T00:28:27;19.80;99.90
41344;DHT22;27089;50.022;7.604;2022-07-21T00:30:54;19.90;99.90
41344;DHT22;27089;50.022;7.604;2022-07-21T00:33:22;19.90;99.90
41344;DHT22;27089;50.022;7.604;2022-07-21T00:35:49;19.90;99.90
41344;DHT22;27089;50.022;7.604;2022-07-21T00:38:16;19.80;99.90
41344;DHT22;27089;50.022;7.604;2022-07-21T00:40:43;19.80;99.90
41344;DHT22;27089;50.022;7.604;2022-07-21T00:43:10;19.80;99.90
41344;DHT22;27089;50.022;7.604;2022-07-21T00:45:37;19.80;99.90
41344;DHT22;27089;50.022;7.604;2022-07-21T00:48:05;19.80;99.90
41344;DHT22;27089;50.022;7.604;2022-07-21T00:50:34;19.80;99.90
41344;DHT22;27089;50.022;7.604;2022-07-21T00:53:01;19.80;99.90
41344;DHT22;27089;50.022;7.604;2022-07-21T00:55:28;19.80;99.90
41344;DHT22;27089;50.022;7.604;2022-07-21T00:57:55;19.80;99.90
41344;DHT22;27089;50.022;7.604;2022-07-21T01:00:24;19.70;99.90
41344;DHT22;27089;50.022;7.604;2022-07-21T01:02:52;19.70;99.90
41344;DHT22;27089;50.022;7.604;2022-07-21T01:05:19;19.70;99.90
41344;DHT22;27089;50.022;7.604;2022-07-21T01:07:50;19.70;99.90
41344;DHT22;27089;50.022;7.604;2022-07-21T01:10:19;19.70;99.90
41344;DHT22;27089;50.022;7.604;2022-07-21T01:12:46;19.70;99.90
41344;DHT22;27089;50.022;7.604;2022-07-21T01:15:15;19.70;99.90
41344;DHT22;27089;50.022;7.604;2022-07-21T01:17:43;19.60;99.90
41344;DHT22;27089;50.022;7.604;2022-07-21T01:20:12;19.60;99.90
41344;DHT22;27089;50.022;7.604;2022-07-21T01:22:44;19.60;99.90
41344;DHT22;27089;50.022;7.604;2022-07-21T01:25:12;19.60;99.90
41344;DHT22;27089;50.022;7.604;2022-07-21T01:27:39;19.50;99.90
41344;DHT22;27089;50.022;7.604;2022-07-21T01:30:08;19.50;99.90
41344;DHT22;27089;50.022;7.604;2022-07-21T01:32:35;19.50;99.90
41344;DHT22;27089;50.022;7.604;2022-07-21T01:35:03;19.50;99.90
41344;DHT22;27089;50.022;7.604;2022-07-21T01:37:31;19.50;99.90
41344;DHT22;27089;50.022;7.604;2022-07-21T01:40:00;19.50;99.90
41344;DHT22;27089;50.022;7.604;2022-07-21T01:42:45;19.50;99.90
41344;DHT22;27089;50.022;7.604;2022-07-21T01:45:12;19.40;99.90
41344;DHT22;27089;50.022;7.604;2022-07-21T01:47:39;19.40;99.90
41344;DHT22;27089;50.022;7.604;2022-07-21T01:50:07;19.30;99.90
41344;DHT22;27089;50.022;7.604;2022-07-21T01:52:34;19.30;99.90
41344;DHT22;27089;50.022;7.604;2022-07-21T01:55:03;19.20;99.90
41344;DHT22;27089;50.022;7.604;2022-07-21T01:57:30;19.20;99.90
41344;DHT22;27089;50.022;7.604;2022-07-21T01:59:57;19.20;99.90
41344;DHT22;27089;50.022;7.604;2022-07-21T02:02:25;19.20;99.90
41344;DHT22;27089;50.022;7.604;2022-07-21T02:04:52;19.20;99.90
41344;DHT22;27089;50.022;7.604;2022-07-21T02:07:19;19.10;99.90
41344;DHT22;27089;50.022;7.604;2022-07-21T02:09:46;19.10;99.90
41344;DHT22;27089;50.022;7.604;2022-07-21T02:12:14;19.00;99.90
41344;DHT22;27089;50.022;7.604;2022-07-21T02:14:42;19.00;99.90
41344;DHT22;27089;50.022;7.604;2022-07-21T02:17:09;18.90;99.90
41344;DHT22;27089;50.022;7.604;2022-07-21T02:19:36;18.90;99.90
41344;DHT22;27089;50.022;7.604;2022-07-21T02:22:03;18.90;99.90
41344;DHT22;27089;50.022;7.604;2022-07-21T02:24:30;18.90;99.90
41344;DHT22;27089;50.022;7.604;2022-07-21T02:26:57;18.80;99.90
41344;DHT22;27089;50.022;7.604;2022-07-21T02:29:25;18.80;99.90
41344;DHT22;27089;50.022;7.604;2022-07-21T02:31:52;18.80;99.90
41344;DHT22;27089;50.022;7.604;2022-07-21T02:34:19;18.80;99.90
41344;DHT22;27089;50.022;7.604;2022-07-21T02:36:47;18.70;99.90
41344;DHT22;27089;50.022;7.604;2022-07-21T02:39:14;18.70;99.90
41344;DHT22;27089;50.022;7.604;2022-07-21T02:41:41;18.60;99.90
41344;DHT22;27089;50.022;7.604;2022-07-21T02:44:08;18.60;99.90
41344;DHT22;27089;50.022;7.604;2022-07-21T02:46:37;18.60;99.90
41344;DHT22;27089;50.022;7.604;2022-07-21T02:49:04;18.60;99.90
41344;DHT22;27089;50.022;7.604;2022-07-21T02:51:31;18.60;99.90
41344;DHT22;27089;50.022;7.604;2022-07-21T02:53:58;18.60;99.90
41344;DHT22;27089;50.022;7.604;2022-07-21T02:56:25;18.60;99.90
41344;DHT22;27089;50.022;7.604;2022-07-21T02:58:52;18.60;99.90
41344;DHT22;27089;50.022;7.604;2022-07-21T03:01:19;18.60;99.90
41344;DHT22;27089;50.022;7.604;2022-07-21T03:03:48;18.60;99.90
41344;DHT22;27089;50.022;7.604;2022-07-21T03:06:15;18.60;99.90
41344;DHT22;27089;50.022;7.604;2022-07-21T03:08:42;18.60;99.90
41344;DHT22;27089;50.022;7.604;2022-07-21T03:11:09;18.60;99.90
41344;DHT22;27089;50.022;7.604;2022-07-21T03:13:36;18.50;99.90
41344;DHT22;27089;50.022;7.604;2022-07-21T03:16:03;18.50;99.90
41344;DHT22;27089;50.022;7.604;2022-07-21T03:18:30;18.50;99.90
41344;DHT22;27089;50.022;7.604;2022-07-21T03:20:59;18.50;99.90
41344;DHT22;27089;50.022;7.604;2022-07-21T03:23:26;18.50;99.90
41344;DHT22;27089;50.022;7.604;2022-07-21T03:25:53;18.50;99.90
41344;DHT22;27089;50.022;7.604;2022-07-21T03:28:20;18.50;99.90
41344;DHT22;27089;50.022;7.604;2022-07-21T03:30:47;18.50;99.90
41344;DHT22;27089;50.022;7.604;2022-07-21T03:33:14;18.50;99.90
41344;DHT22;27089;50.022;7.604;2022-07-21T03:35:41;18.50;99.90
41344;DHT22;27089;50.022;7.604;2022-07-21T03:38:09;18.50;99.90
41344;DHT22;27089;50.022;7.604;2022-07-21T03:40:37;18.50;99.90
41344;DHT22;27089;50.022;7.604;2022-07-21T03:43:06;18.50;99.90
41344;DHT22;27089;50.022;7.604;2022-07-21T03:45:35;18.50;99.90
41344;DHT22;27089;50.022;7.604;2022-07-21T03:48:03;18.50;99.90
41344;DHT22;27089;50.022;7.604;2022-07-21T03:50:32;18.50;99.90
41344;DHT22;27089;50.022;7.604;2022-07-21T03:52:59;18.50;99.90
41344;DHT22;27089;50.022;7.604;2022-07-21T03:55:28;18.50;99.90
41344;DHT22;27089;50.022;7.604;2022-07-21T03:57:57;18.50;99.90
41344;DHT22;27089;50.022;7.604;2022-07-21T04:00:28;18.50;99.90
41344;DHT22;27089;50.022;7.604;2022-07-21T04:02:55;18.50;99.90
41344;DHT22;27089;50.022;7.604;2022-07-21T04:05:23;18.50;99.90
41344;DHT22;27089;50.022;7.604;2022-07-21T04:07:51;18.50;99.90
41344;DHT22;27089;50.022;7.604;2022-07-21T04:10:19;18.50;99.90
41344;DHT22;27089;50.022;7.604;2022-07-21T04:12:48;18.60;99.90
41344;DHT22;27089;50.022;7.604;2022-07-21T04:15:16;18.60;99.90
41344;DHT22;27089;50.022;7.604;2022-07-21T04:17:43;18.60;99.90
41344;DHT22;27089;50.022;7.604;2022-07-21T04:20:12;18.60;99.90
41344;DHT22;27089;50.022;7.604;2022-07-21T04:22:39;18.60;99.90
41344;DHT22;27089;50.022;7.604;2022-07-21T04:25:07;18.60;99.90
41344;DHT22;27089;50.022;7.604;2022-07-21T04:27:35;18.60;99.90
41344;DHT22;27089;50.022;7.604;2022-07-21T04:30:06;18.60;99.90
41344;DHT22;27089;50.022;7.604;2022-07-21T04:32:34;18.60;99.90
41344;DHT22;27089;50.022;7.604;2022-07-21T04:35:01;18.60;99.90
41344;DHT22;27089;50.022;7.604;2022-07-21T04:37:28;18.60;99.90
41344;DHT22;27089;50.022;7.604;2022-07-21T04:39:55;18.60;99.90
41344;DHT22;27089;50.022;7.604;2022-07-21T04:42:22;18.60;99.90
41344;DHT22;27089;50.022;7.604;2022-07-21T04:44:49;18.60;99.90
41344;DHT22;27089;50.022;7.604;2022-07-21T04:47:18;18.60;99.90
41344;DHT22;27089;50.022;7.604;2022-07-21T04:49:45;18.60;99.90
41344;DHT22;27089;50.022;7.604;2022-07-21T04:52:12;18.50;99.90
41344;DHT22;27089;50.022;7.604;2022-07-21T04:54:39;18.60;99.90
41344;DHT22;27089;50.022;7.604;2022-07-21T04:57:06;18.50;99.90
41344;DHT22;27089;50.022;7.604;2022-07-21T04:59:34;18.50;99.90
41344;DHT22;27089;50.022;7.604;2022-07-21T05:02:02;18.50;99.90
41344;DHT22;27089;50.022;7.604;2022-07-21T05:04:30;18.60;99.90
41344;DHT22;27089;50.022;7.604;2022-07-21T05:06:57;18.60;99.90
41344;DHT22;27089;50.022;7.604;2022-07-21T05:09:24;18.50;99.90
41344;DHT22;27089;50.022;7.604;2022-07-21T05:11:52;18.50;99.90
41344;DHT22;27089;50.022;7.604;2022-07-21T05:14:20;18.50;99.90
41344;DHT22;27089;50.022;7.604;2022-07-21T05:16:47;18.50;99.90
41344;DHT22;27089;50.022;7.604;2022-07-21T05:19:14;18.60;99.90
41344;DHT22;27089;50.022;7.604;2022-07-21T05:21:43;18.60;99.90
41344;DHT22;27089;50.022;7.604;2022-07-21T05:24:11;18.70;99.90
41344;DHT22;27089;50.022;7.604;2022-07-21T05:26:38;18.80;99.90
41344;DHT22;27089;50.022;7.604;2022-07-21T05:29:05;18.80;99.90
41344;DHT22;27089;50.022;7.604;2022-07-21T05:31:32;18.90;99.90
41344;DHT22;27089;50.022;7.604;2022-07-21T05:33:59;19.00;99.90
41344;DHT22;27089;50.022;7.604;2022-07-21T05:36:25;19.10;99.90
41344;DHT22;27089;50.022;7.604;2022-07-21T05:38:54;19.20;99.90
41344;DHT22;27089;50.022;7.604;2022-07-21T05:41:21;19.20;99.90
41344;DHT22;27089;50.022;7.604;2022-07-21T05:43:48;19.20;99.90
41344;DHT22;27089;50.022;7.604;2022-07-21T05:46:15;19.20;99.90
41344;DHT22;27089;50.022;7.604;2022-07-21T05:48:42;19.10;99.90
41344;DHT22;27089;50.022;7.604;2022-07-21T05:51:09;19.10;99.90
41344;DHT22;27089;50.022;7.604;2022-07-21T05:53:36;19.00;99.90
41344;DHT22;27089;50.022;7.604;2022-07-21T05:56:04;18.90;99.90
41344;DHT22;27089;50.022;7.604;2022-07-21T05:58:33;19.00;99.90
41344;DHT22;27089;50.022;7.604;2022-07-21T06:01:00;19.00;99.90
41344;DHT22;27089;50.022;7.604;2022-07-21T06:03:39;19.00;99.90
41344;DHT22;27089;50.022;7.604;2022-07-21T06:06:07;18.90;99.90
41344;DHT22;27089;50.022;7.604;2022-07-21T06:08:34;19.00;99.90
41344;DHT22;27089;50.022;7.604;2022-07-21T06:11:04;19.20;99.90
41344;DHT22;27089;50.022;7.604;2022-07-21T06:13:31;19.30;99.90
41344;DHT22;27089;50.022;7.604;2022-07-21T06:15:58;19.40;99.90
41344;DHT22;27089;50.022;7.604;2022-07-21T06:18:25;19.60;99.90
41344;DHT22;27089;50.022;7.604;2022-07-21T06:20:52;19.80;99.90
41344;DHT22;27089;50.022;7.604;2022-07-21T06:23:19;20.00;99.90
41344;DHT22;27089;50.022;7.604;2022-07-21T06:25:46;20.00;99.90
41344;DHT22;27089;50.022;7.604;2022-07-21T06:28:15;20.20;99.90
41344;DHT22;27089;50.022;7.604;2022-07-21T06:30:42;20.20;99.90
41344;DHT22;27089;50.022;7.604;2022-07-21T06:33:09;20.20;99.90
41344;DHT22;27089;50.022;7.604;2022-07-21T06:35:36;20.10;99.90
41344;DHT22;27089;50.022;7.604;2022-07-21T06:38:04;20.00;99.90
41344;DHT22;27089;50.022;7.604;2022-07-21T06:40:31;20.10;99.90
41344;DHT22;27089;50.022;7.604;2022-07-21T06:42:58;20.20;99.90
41344;DHT22;27089;50.022;7.604;2022-07-21T06:45:27;20.30;99.90
41344;DHT22;27089;50.022;7.604;2022-07-21T06:48:02;20.30;99.90
41344;DHT22;27089;50.022;7.604;2022-07-21T06:50:29;20.50;99.90
41344;DHT22;27089;50.022;7.604;2022-07-21T06:52:57;20.60;99.90
41344;DHT22;27089;50.022;7.604;2022-07-21T06:55:24;20.70;99.90
41344;DHT22;27089;50.022;7.604;2022-07-21T06:57:51;20.80;99.90
41344;DHT22;27089;50.022;7.604;2022-07-21T07:00:18;21.00;99.90
41344;DHT22;27089;50.022;7.604;2022-07-21T07:02:47;21.00;99.90
41344;DHT22;27089;50.022;7.604;2022-07-21T07:05:14;21.00;99.90
41344;DHT22;27089;50.022;7.604;2022-07-21T07:07:41;20.90;99.90
41344;DHT22;27089;50.022;7.604;2022-07-21T07:10:10;21.00;99.90
41344;DHT22;27089;50.022;7.604;2022-07-21T07:12:37;21.10;99.90
41344;DHT22;27089;50.022;7.604;2022-07-21T07:15:06;21.40;99.90
41344;DHT22;27089;50.022;7.604;2022-07-21T07:17:33;21.50;99.90
41344;DHT22;27089;50.022;7.604;2022-07-21T07:20:01;21.50;99.90
41344;DHT22;27089;50.022;7.604;2022-07-21T07:22:30;21.40;99.90
41344;DHT22;27089;50.022;7.604;2022-07-21T07:24:57;21.20;99.90
41344;DHT22;27089;50.022;7.604;2022-07-21T07:27:24;21.00;99.90
41344;DHT22;27089;50.022;7.604;2022-07-21T07:29:51;20.80;99.90
41344;DHT22;27089;50.022;7.604;2022-07-21T07:32:19;20.80;99.90
41344;DHT22;27089;50.022;7.604;2022-07-21T07:34:46;21.00;99.90
41344;DHT22;27089;50.022;7.604;2022-07-21T07:37:15;21.20;99.90
41344;DHT22;27089;50.022;7.604;2022-07-21T07:39:42;21.50;99.90
41344;DHT22;27089;50.022;7.604;2022-07-21T07:42:09;21.40;99.90
41344;DHT22;27089;50.022;7.604;2022-07-21T07:44:36;21.20;99.90
41344;DHT22;27089;50.022;7.604;2022-07-21T07:47:03;21.00;99.90
41344;DHT22;27089;50.022;7.604;2022-07-21T07:49:30;20.90;99.90
41344;DHT22;27089;50.022;7.604;2022-07-21T07:51:58;20.80;99.90
41344;DHT22;27089;50.022;7.604;2022-07-21T07:54:26;20.80;99.90
41344;DHT22;27089;50.022;7.604;2022-07-21T07:56:53;20.80;99.90
41344;DHT22;27089;50.022;7.604;2022-07-21T07:59:20;20.80;99.90
41344;DHT22;27089;50.022;7.604;2022-07-21T08:01:47;20.90;99.90
41344;DHT22;27089;50.022;7.604;2022-07-21T08:04:14;21.00;99.90
41344;DHT22;27089;50.022;7.604;2022-07-21T08:06:41;21.20;99.90
41344;DHT22;27089;50.022;7.604;2022-07-21T08:09:08;21.50;99.90
41344;DHT22;27089;50.022;7.604;2022-07-21T08:11:37;21.60;99.90
41344;DHT22;27089;50.022;7.604;2022-07-21T08:14:04;21.70;99.90
41344;DHT22;27089;50.022;7.604;2022-07-21T08:16:31;21.80;99.90
41344;DHT22;27089;50.022;7.604;2022-07-21T08:18:58;22.00;99.90
41344;DHT22;27089;50.022;7.604;2022-07-21T08:21:25;22.20;99.90
41344;DHT22;27089;50.022;7.604;2022-07-21T08:23:56;22.30;99.90
41344;DHT22;27089;50.022;7.604;2022-07-21T08:26:24;22.30;99.90
41344;DHT22;27089;50.022;7.604;2022-07-21T08:28:53;22.40;99.90
41344;DHT22;27089;50.022;7.604;2022-07-21T08:31:20;22.50;99.90
41344;DHT22;27089;50.022;7.604;2022-07-21T08:33:48;22.70;99.90
41344;DHT22;27089;50.022;7.604;2022-07-21T08:36:15;22.90;99.90
41344;DHT22;27089;50.022;7.604;2022-07-21T08:38:42;22.90;99.90
41344;DHT22;27089;50.022;7.604;2022-07-21T08:41:09;22.80;99.90
41344;DHT22;27089;50.022;7.604;2022-07-21T08:43:37;22.50;99.90
41344;DHT22;27089;50.022;7.604;2022-07-21T08:46:05;22.30;99.90
41344;DHT22;27089;50.022;7.604;2022-07-21T08:48:32;22.10;99.90
41344;DHT22;27089;50.022;7.604;2022-07-21T08:50:59;22.10;99.90
41344;DHT22;27089;50.022;7.604;2022-07-21T08:53:27;22.20;99.90
41344;DHT22;27089;50.022;7.604;2022-07-21T08:55:54;22.20;99.90
41344;DHT22;27089;50.022;7.604;2022-07-21T08:58:21;22.10;99.90
41344;DHT22;27089;50.022;7.604;2022-07-21T09:00:49;22.20;99.90
41344;DHT22;27089;50.022;7.604;2022-07-21T09:03:19;22.40;99.90
41344;DHT22;27089;50.022;7.604;2022-07-21T09:06:02;22.60;99.90
41344;DHT22;27089;50.022;7.604;2022-07-21T09:08:31;22.80;99.90
41344;DHT22;27089;50.022;7.604;2022-07-21T09:11:13;22.80;99.90
41344;DHT22;27089;50.022;7.604;2022-07-21T09:13:41;22.60;99.90
41344;DHT22;27089;50.022;7.604;2022-07-21T09:16:08;22.50;99.90
41344;DHT22;27089;50.022;7.604;2022-07-21T09:18:47;22.70;99.90
41344;DHT22;27089;50.022;7.604;2022-07-21T09:21:16;23.00;99.90
41344;DHT22;27089;50.022;7.604;2022-07-21T09:23:43;23.10;99.90
41344;DHT22;27089;50.022;7.604;2022-07-21T09:26:10;23.10;99.90
41344;DHT22;27089;50.022;7.604;2022-07-21T09:28:38;23.10;99.90
41344;DHT22;27089;50.022;7.604;2022-07-21T09:31:08;23.00;99.90
41344;DHT22;27089;50.022;7.604;2022-07-21T09:33:37;22.90;99.90
41344;DHT22;27089;50.022;7.604;2022-07-21T09:36:08;22.80;99.90
41344;DHT22;27089;50.022;7.604;2022-07-21T09:38:38;23.50;99.90
41344;DHT22;27089;50.022;7.604;2022-07-21T09:41:08;24.70;99.90
41344;DHT22;27089;50.022;7.604;2022-07-21T09:43:38;26.00;99.90
41344;DHT22;27089;50.022;7.604;2022-07-21T09:46:14;26.70;99.90
41344;DHT22;27089;50.022;7.604;2022-07-21T09:48:43;27.20;99.90
41344;DHT22;27089;50.022;7.604;2022-07-21T09:51:23;27.40;99.90
41344;DHT22;27089;50.022;7.604;2022-07-21T09:53:52;28.00;99.90
41344;DHT22;27089;50.022;7.604;2022-07-21T09:56:20;28.60;99.90
41344;DHT22;27089;50.022;7.604;2022-07-21T09:58:48;28.90;99.90
41344;DHT22;27089;50.022;7.604;2022-07-21T10:01:16;29.20;99.90
41344;DHT22;27089;50.022;7.604;2022-07-21T10:03:43;29.50;99.90
41344;DHT22;27089;50.022;7.604;2022-07-21T10:06:12;30.00;99.90
41344;DHT22;27089;50.022;7.604;2022-07-21T10:08:42;30.10;99.90
41344;DHT22;27089;50.022;7.604;2022-07-21T10:11:10;30.20;99.90
41344;DHT22;27089;50.022;7.604;2022-07-21T10:13:38;29.70;99.70
41344;DHT22;27089;50.022;7.604;2022-07-21T10:16:07;29.10;98.60
41344;DHT22;27089;50.022;7.604;2022-07-21T10:18:38;28.60;99.90
41344;DHT22;27089;50.022;7.604;2022-07-21T10:21:14;28.60;99.90
41344;DHT22;27089;50.022;7.604;2022-07-21T10:23:44;29.00;99.90
41344;DHT22;27089;50.022;7.604;2022-07-21T10:26:12;29.20;98.80
41344;DHT22;27089;50.022;7.604;2022-07-21T10:28:39;28.60;98.90
41344;DHT22;27089;50.022;7.604;2022-07-21T10:31:14;27.70;99.90
41344;DHT22;27089;50.022;7.604;2022-07-21T10:33:59;27.40;99.90
41344;DHT22;27089;50.022;7.604;2022-07-21T10:36:40;27.20;99.90
41344;DHT22;27089;50.022;7.604;2022-07-21T10:39:25;26.80;99.90
41344;DHT22;27089;50.022;7.604;2022-07-21T10:41:55;26.20;99.90
41344;DHT22;27089;50.022;7.604;2022-07-21T10:44:40;26.00;99.90
41344;DHT22;27089;50.022;7.604;2022-07-21T10:47:08;26.00;99.90
41344;DHT22;27089;50.022;7.604;2022-07-21T10:49:50;25.90;99.90
41344;DHT22;27089;50.022;7.604;2022-07-21T10:55:24;25.40;99.90
41344;DHT22;27089;50.022;7.604;2022-07-21T10:58:17;25.40;99.90
41344;DHT22;27089;50.022;7.604;2022-07-21T11:00:51;25.50;99.90
41344;DHT22;27089;50.022;7.604;2022-07-21T11:03:29;25.60;99.90
41344;DHT22;27089;50.022;7.604;2022-07-21T11:06:20;25.70;99.90
41344;DHT22;27089;50.022;7.604;2022-07-21T11:08:50;25.80;99.90
41344;DHT22;27089;50.022;7.604;2022-07-21T11:11:21;25.70;99.90
41344;DHT22;27089;50.022;7.604;2022-07-21T11:14:05;25.50;99.90
41344;DHT22;27089;50.022;7.604;2022-07-21T11:17:00;25.30;99.90
41344;DHT22;27089;50.022;7.604;2022-07-21T11:19:34;25.10;99.90
41344;DHT22;27089;50.022;7.604;2022-07-21T11:22:05;25.10;99.90
41344;DHT22;27089;50.022;7.604;2022-07-21T11:24:33;25.20;99.90
41344;DHT22;27089;50.022;7.604;2022-07-21T11:27:04;25.40;99.90
41344;DHT22;27089;50.022;7.604;2022-07-21T11:29:32;25.70;99.90
41344;DHT22;27089;50.022;7.604;2022-07-21T11:32:00;25.80;99.90
41344;DHT22;27089;50.022;7.604;2022-07-21T11:34:41;25.90;99.90
41344;DHT22;27089;50.022;7.604;2022-07-21T11:37:11;26.00;99.90
41344;DHT22;27089;50.022;7.604;2022-07-21T11:39:38;25.80;99.90
41344;DHT22;27089;50.022;7.604;2022-07-21T11:42:09;25.70;99.90
41344;DHT22;27089;50.022;7.604;2022-07-21T11:44:36;25.50;99.90
41344;DHT22;27089;50.022;7.604;2022-07-21T11:47:05;25.50;99.90
41344;DHT22;27089;50.022;7.604;2022-07-21T11:49:32;25.50;99.90
41344;DHT22;27089;50.022;7.604;2022-07-21T11:52:02;25.30;99.90
41344;DHT22;27089;50.022;7.604;2022-07-21T11:54:32;25.10;99.90
41344;DHT22;27089;50.022;7.604;2022-07-21T11:57:00;24.80;99.90
41344;DHT22;27089;50.022;7.604;2022-07-21T11:59:29;24.70;99.90
41344;DHT22;27089;50.022;7.604;2022-07-21T12:01:59;25.00;99.90
41344;DHT22;27089;50.022;7.604;2022-07-21T12:04:42;25.30;99.90
41344;DHT22;27089;50.022;7.604;2022-07-21T12:07:19;25.30;99.90
41344;DHT22;27089;50.022;7.604;2022-07-21T12:09:49;25.10;99.90
41344;DHT22;27089;50.022;7.604;2022-07-21T12:12:28;25.20;99.90
41344;DHT22;27089;50.022;7.604;2022-07-21T12:14:57;25.40;99.90
41344;DHT22;27089;50.022;7.604;2022-07-21T12:17:35;25.60;99.90
41344;DHT22;27089;50.022;7.604;2022-07-21T12:20:04;25.70;99.90
41344;DHT22;27089;50.022;7.604;2022-07-21T12:22:37;25.70;99.90
41344;DHT22;27089;50.022;7.604;2022-07-21T12:25:05;25.70;99.90
41344;DHT22;27089;50.022;7.604;2022-07-21T12:27:35;25.60;99.90
41344;DHT22;27089;50.022;7.604;2022-07-21T12:30:06;25.50;99.90
41344;DHT22;27089;50.022;7.604;2022-07-21T12:32:45;25.60;99.90
41344;DHT22;27089;50.022;7.604;2022-07-21T12:35:24;25.90;99.90
41344;DHT22;27089;50.022;7.604;2022-07-21T12:37:59;25.90;99.90
41344;DHT22;27089;50.022;7.604;2022-07-21T12:40:28;25.80;99.90
41344;DHT22;27089;50.022;7.604;2022-07-21T12:43:07;25.60;99.90
41344;DHT22;27089;50.022;7.604;2022-07-21T12:45:48;25.50;99.90
41344;DHT22;27089;50.022;7.604;2022-07-21T12:48:17;25.70;99.90
41344;DHT22;27089;50.022;7.604;2022-07-21T12:51:01;26.00;99.90
41344;DHT22;27089;50.022;7.604;2022-07-21T12:53:29;26.20;99.90
41344;DHT22;27089;50.022;7.604;2022-07-21T12:55:57;26.50;99.90
41344;DHT22;27089;50.022;7.604;2022-07-21T12:58:24;26.60;99.90
41344;DHT22;27089;50.022;7.604;2022-07-21T13:00:52;26.70;99.90
41344;DHT22;27089;50.022;7.604;2022-07-21T13:03:19;26.80;99.90
41344;DHT22;27089;50.022;7.604;2022-07-21T13:05:46;26.70;99.90
41344;DHT22;27089;50.022;7.604;2022-07-21T13:08:13;26.70;99.90
41344;DHT22;27089;50.022;7.604;2022-07-21T13:10:40;26.70;99.90
41344;DHT22;27089;50.022;7.604;2022-07-21T13:13:07;26.90;99.90
41344;DHT22;27089;50.022;7.604;2022-07-21T13:15:34;26.80;99.90
41344;DHT22;27089;50.022;7.604;2022-07-21T13:18:03;26.60;99.90
41344;DHT22;27089;50.022;7.604;2022-07-21T13:20:30;26.30;99.90
41344;DHT22;27089;50.022;7.604;2022-07-21T13:22:57;26.20;99.90
41344;DHT22;27089;50.022;7.604;2022-07-21T13:25:24;26.00;99.90
41344;DHT22;27089;50.022;7.604;2022-07-21T13:27:51;26.10;99.90
41344;DHT22;27089;50.022;7.604;2022-07-21T13:30:18;26.40;99.90
41344;DHT22;27089;50.022;7.604;2022-07-21T13:32:45;26.50;99.90
41344;DHT22;27089;50.022;7.604;2022-07-21T13:35:14;26.70;99.90
41344;DHT22;27089;50.022;7.604;2022-07-21T13:37:41;26.70;99.90
41344;DHT22;27089;50.022;7.604;2022-07-21T13:40:09;26.50;99.90
41344;DHT22;27089;50.022;7.604;2022-07-21T13:42:36;26.50;99.90
41344;DHT22;27089;50.022;7.604;2022-07-21T13:45:04;26.60;99.90
41344;DHT22;27089;50.022;7.604;2022-07-21T13:47:33;26.70;99.90
41344;DHT22;27089;50.022;7.604;2022-07-21T13:50:00;26.70;99.90
41344;DHT22;27089;50.022;7.604;2022-07-21T13:52:29;26.90;99.90
41344;DHT22;27089;50.022;7.604;2022-07-21T13:54:56;27.00;99.90
41344;DHT22;27089;50.022;7.604;2022-07-21T13:57:22;27.10;99.90
41344;DHT22;27089;50.022;7.604;2022-07-21T13:59:50;27.10;99.90
41344;DHT22;27089;50.022;7.604;2022-07-21T14:02:17;27.10;99.90
41344;DHT22;27089;50.022;7.604;2022-07-21T14:04:44;27.10;99.90
41344;DHT22;27089;50.022;7.604;2022-07-21T14:07:11;26.90;99.90
41344;DHT22;27089;50.022;7.604;2022-07-21T14:09:41;26.70;99.90
41344;DHT22;27089;50.022;7.604;2022-07-21T14:12:08;26.60;99.90
41344;DHT22;27089;50.022;7.604;2022-07-21T14:14:36;26.80;99.90
41344;DHT22;27089;50.022;7.604;2022-07-21T14:17:04;26.90;99.90
41344;DHT22;27089;50.022;7.604;2022-07-21T14:19:31;26.90;99.90
41344;DHT22;27089;50.022;7.604;2022-07-21T14:21:58;26.80;99.90
41344;DHT22;27089;50.022;7.604;2022-07-21T14:24:25;26.70;99.90
41344;DHT22;27089;50.022;7.604;2022-07-21T14:27:11;26.70;99.90
41344;DHT22;27089;50.022;7.604;2022-07-21T14:29:38;26.80;99.90
41344;DHT22;27089;50.022;7.604;2022-07-21T14:32:05;26.90;99.90
41344;DHT22;27089;50.022;7.604;2022-07-21T14:34:32;27.00;99.90
41344;DHT22;27089;50.022;7.604;2022-07-21T14:36:59;27.10;99.90
41344;DHT22;27089;50.022;7.604;2022-07-21T14:39:26;27.00;99.90
41344;DHT22;27089;50.022;7.604;2022-07-21T14:41:53;26.80;99.90
41344;DHT22;27089;50.022;7.604;2022-07-21T14:44:22;26.60;99.90
41344;DHT22;27089;50.022;7.604;2022-07-21T14:46:49;26.40;99.90
41344;DHT22;27089;50.022;7.604;2022-07-21T14:49:16;26.30;99.90
41344;DHT22;27089;50.022;7.604;2022-07-21T14:51:43;26.40;99.90
41344;DHT22;27089;50.022;7.604;2022-07-21T14:54:10;26.60;99.90
41344;DHT22;27089;50.022;7.604;2022-07-21T14:56:37;26.80;99.90
41344;DHT22;27089;50.022;7.604;2022-07-21T14:59:04;26.80;99.90
41344;DHT22;27089;50.022;7.604;2022-07-21T15:01:32;26.60;99.90
41344;DHT22;27089;50.022;7.604;2022-07-21T15:03:59;26.30;99.90
41344;DHT22;27089;50.022;7.604;2022-07-21T15:06:26;26.10;99.90
41344;DHT22;27089;50.022;7.604;2022-07-21T15:08:53;25.90;99.90
41344;DHT22;27089;50.022;7.604;2022-07-21T15:11:20;25.70;99.90
41344;DHT22;27089;50.022;7.604;2022-07-21T15:13:48;25.60;99.90
41344;DHT22;27089;50.022;7.604;2022-07-21T15:16:15;25.50;99.90
41344;DHT22;27089;50.022;7.604;2022-07-21T15:18:43;25.40;99.90
41344;DHT22;27089;50.022;7.604;2022-07-21T15:21:10;25.30;99.90
41344;DHT22;27089;50.022;7.604;2022-07-21T15:23:37;25.30;99.90
41344;DHT22;27089;50.022;7.604;2022-07-21T15:26:05;25.30;99.90
41344;DHT22;27089;50.022;7.604;2022-07-21T15:28:32;25.30;99.90
41344;DHT22;27089;50.022;7.604;2022-07-21T15:30:59;25.30;99.90
41344;DHT22;27089;50.022;7.604;2022-07-21T15:33:26;25.30;99.90
41344;DHT22;27089;50.022;7.604;2022-07-21T15:35:54;25.30;99.90
41344;DHT22;27089;50.022;7.604;2022-07-21T15:38:21;25.40;99.90
41344;DHT22;27089;50.022;7.604;2022-07-21T15:40:48;25.40;99.90
41344;DHT22;27089;50.022;7.604;2022-07-21T15:43:16;25.40;99.90